sensor_id;sensor_type;location;lat;lon;timestamp;temperature;humidity
42187;DHT22;27858;51.414;0.018;2023-04-01T00:01:15;10.90;99.90
42187;DHT22;27858;51.414;0.018;2023-04-01T00:03:43;10.80;99.90
42187;DHT22;27858;51.414;0.018;2023-04-01T00:06:15;10.80;99.90
42187;DHT22;27858;51.414;0.018;2023-04-01T00:08:42;10.90;99.90
42187;DHT22;27858;51.414;0.018;2023-04-01T00:11:10;10.40;99.90
42187;DHT22;27858;51.414;0.018;2023-04-01T00:13:37;10.30;99.90
42187;DHT22;27858;51.414;0.018;2023-04-01T00:16:04;10.80;99.90
42187;DHT22;27858;51.414;0.018;2023-04-01T00:18:47;10.90;99.90
42187;DHT22;27858;51.414;0.018;2023-04-01T00:21:14;10.80;99.90
42187;DHT22;27858;51.414;0.018;2023-04-01T00:23:41;10.80;99.90
42187;DHT22;27858;51.414;0.018;2023-04-01T00:26:08;10.80;99.90
42187;DHT22;27858;51.414;0.018;2023-04-01T00:28:38;10.10;99.90
42187;DHT22;27858;51.414;0.018;2023-04-01T00:31:06;10.80;99.90
42187;DHT22;27858;51.414;0.018;2023-04-01T00:33:33;10.90;99.90
42187;DHT22;27858;51.414;0.018;2023-04-01T00:36:26;10.30;99.90
42187;DHT22;27858;51.414;0.018;2023-04-01T00:38:53;10.80;99.90
42187;DHT22;27858;51.414;0.018;2023-04-01T00:41:20;10.90;99.90
42187;DHT22;27858;51.414;0.018;2023-04-01T00:43:49;10.00;99.90
42187;DHT22;27858;51.414;0.018;2023-04-01T00:46:16;10.70;99.90
42187;DHT22;27858;51.414;0.018;2023-04-01T00:48:52;10.50;99.90
42187;DHT22;27858;51.414;0.018;2023-04-01T00:51:25;10.20;99.90
42187;DHT22;27858;51.414;0.018;2023-04-01T00:53:54;10.10;99.90
42187;DHT22;27858;51.414;0.018;2023-04-01T00:56:30;10.10;99.90
42187;DHT22;27858;51.414;0.018;2023-04-01T00:59:00;10.70;99.90
42187;DHT22;27858;51.414;0.018;2023-04-01T01:01:29;10.00;99.90
42187;DHT22;27858;51.414;0.018;2023-04-01T01:03:56;10.80;99.90
42187;DHT22;27858;51.414;0.018;2023-04-01T01:07:03;10.70;99.90
42187;DHT22;27858;51.414;0.018;2023-04-01T01:15:36;10.80;99.90
42187;DHT22;27858;51.414;0.018;2023-04-01T01:18:20;9.90;99.90
42187;DHT22;27858;51.414;0.018;2023-04-01T01:29:14;10.60;99.90
42187;DHT22;27858;51.414;0.018;2023-04-01T01:37:22;10.00;99.90
42187;DHT22;27858;51.414;0.018;2023-04-01T01:39:56;10.60;99.90
42187;DHT22;27858;51.414;0.018;2023-04-01T01:42:26;10.50;99.90
42187;DHT22;27858;51.414;0.018;2023-04-01T01:44:55;9.80;99.90
42187;DHT22;27858;51.414;0.018;2023-04-01T01:47:24;10.00;99.90
42187;DHT22;27858;51.414;0.018;2023-04-01T01:49:53;10.00;99.90
42187;DHT22;27858;51.414;0.018;2023-04-01T01:52:22;9.70;99.90
42187;DHT22;27858;51.414;0.018;2023-04-01T01:54:54;10.30;99.90
42187;DHT22;27858;51.414;0.018;2023-04-01T01:57:36;9.80;99.90
42187;DHT22;27858;51.414;0.018;2023-04-01T02:00:09;10.20;99.90
42187;DHT22;27858;51.414;0.018;2023-04-01T02:02:45;9.70;99.90
42187;DHT22;27858;51.414;0.018;2023-04-01T02:05:14;9.70;99.90
42187;DHT22;27858;51.414;0.018;2023-04-01T02:07:48;9.60;99.90
42187;DHT22;27858;51.414;0.018;2023-04-01T02:10:16;9.90;99.90
42187;DHT22;27858;51.414;0.018;2023-04-01T02:12:46;10.10;99.90
42187;DHT22;27858;51.414;0.018;2023-04-01T02:15:15;10.20;99.90
42187;DHT22;27858;51.414;0.018;2023-04-01T02:17:44;10.00;99.90
42187;DHT22;27858;51.414;0.018;2023-04-01T02:20:30;9.30;99.90
42187;DHT22;27858;51.414;0.018;2023-04-01T02:22:58;10.10;99.90
42187;DHT22;27858;51.414;0.018;2023-04-01T02:25:33;9.40;99.90
42187;DHT22;27858;51.414;0.018;2023-04-01T02:28:02;10.00;99.90
42187;DHT22;27858;51.414;0.018;2023-04-01T02:30:32;10.10;99.90
42187;DHT22;27858;51.414;0.018;2023-04-01T02:33:01;9.40;99.90
42187;DHT22;27858;51.414;0.018;2023-04-01T02:35:28;9.40;99.90
42187;DHT22;27858;51.414;0.018;2023-04-01T02:37:56;9.60;99.90
42187;DHT22;27858;51.414;0.018;2023-04-01T02:40:23;10.00;99.90
42187;DHT22;27858;51.414;0.018;2023-04-01T02:42:50;10.10;99.90
42187;DHT22;27858;51.414;0.018;2023-04-01T02:45:17;10.00;99.90
42187;DHT22;27858;51.414;0.018;2023-04-01T02:47:44;10.10;99.90
42187;DHT22;27858;51.414;0.018;2023-04-01T02:50:11;10.00;99.90
42187;DHT22;27858;51.414;0.018;2023-04-01T02:52:37;9.80;99.90
42187;DHT22;27858;51.414;0.018;2023-04-01T02:55:06;10.00;99.90
42187;DHT22;27858;51.414;0.018;2023-04-01T02:57:33;9.60;99.90
42187;DHT22;27858;51.414;0.018;2023-04-01T03:00:00;9.70;99.90
42187;DHT22;27858;51.414;0.018;2023-04-01T03:02:27;9.50;99.90
42187;DHT22;27858;51.414;0.018;2023-04-01T03:04:53;9.30;99.90
42187;DHT22;27858;51.414;0.018;2023-04-01T03:07:20;9.70;99.90
42187;DHT22;27858;51.414;0.018;2023-04-01T03:09:47;9.80;99.90
42187;DHT22;27858;51.414;0.018;2023-04-01T03:12:14;9.30;99.90
42187;DHT22;27858;51.414;0.018;2023-04-01T03:14:40;9.30;99.90
42187;DHT22;27858;51.414;0.018;2023-04-01T03:17:07;10.10;99.90
42187;DHT22;27858;51.414;0.018;2023-04-01T03:19:34;9.30;99.90
42187;DHT22;27858;51.414;0.018;2023-04-01T03:22:00;9.30;99.90
42187;DHT22;27858;51.414;0.018;2023-04-01T03:24:27;10.00;99.90
42187;DHT22;27858;51.414;0.018;2023-04-01T03:26:54;10.00;99.90
42187;DHT22;27858;51.414;0.018;2023-04-01T03:29:21;9.30;99.90
42187;DHT22;27858;51.414;0.018;2023-04-01T03:31:47;10.00;99.90
42187;DHT22;27858;51.414;0.018;2023-04-01T03:34:14;9.30;99.90
42187;DHT22;27858;51.414;0.018;2023-04-01T03:36:41;9.70;99.90
42187;DHT22;27858;51.414;0.018;2023-04-01T03:39:07;9.60;99.90
42187;DHT22;27858;51.414;0.018;2023-04-01T03:41:36;9.90;99.90
42187;DHT22;27858;51.414;0.018;2023-04-01T03:44:05;9.30;99.90
42187;DHT22;27858;51.414;0.018;2023-04-01T03:46:31;9.10;99.90
42187;DHT22;27858;51.414;0.018;2023-04-01T03:48:58;9.70;99.90
42187;DHT22;27858;51.414;0.018;2023-04-01T03:51:25;9.50;99.90
42187;DHT22;27858;51.414;0.018;2023-04-01T03:53:52;9.40;99.90
42187;DHT22;27858;51.414;0.018;2023-04-01T03:56:19;9.80;99.90
42187;DHT22;27858;51.414;0.018;2023-04-01T03:58:45;9.10;99.90
42187;DHT22;27858;51.414;0.018;2023-04-01T04:01:17;9.80;99.90
42187;DHT22;27858;51.414;0.018;2023-04-01T04:03:45;9.30;99.90
42187;DHT22;27858;51.414;0.018;2023-04-01T04:06:13;9.60;99.90
42187;DHT22;27858;51.414;0.018;2023-04-01T04:08:40;9.80;99.90
42187;DHT22;27858;51.414;0.018;2023-04-01T04:11:07;9.60;99.90
42187;DHT22;27858;51.414;0.018;2023-04-01T04:13:34;9.30;99.90
42187;DHT22;27858;51.414;0.018;2023-04-01T04:16:03;9.50;99.90
42187;DHT22;27858;51.414;0.018;2023-04-01T04:18:30;9.60;99.90
42187;DHT22;27858;51.414;0.018;2023-04-01T04:20:56;9.50;99.90
42187;DHT22;27858;51.414;0.018;2023-04-01T04:23:23;9.70;99.90
42187;DHT22;27858;51.414;0.018;2023-04-01T04:25:59;9.80;99.90
42187;DHT22;27858;51.414;0.018;2023-04-01T04:28:27;9.70;99.90
42187;DHT22;27858;51.414;0.018;2023-04-01T04:30:55;9.20;99.90
42187;DHT22;27858;51.414;0.018;2023-04-01T04:33:22;9.20;99.90
42187;DHT22;27858;51.414;0.018;2023-04-01T04:35:50;9.80;99.90
42187;DHT22;27858;51.414;0.018;2023-04-01T04:38:17;9.30;99.90
42187;DHT22;27858;51.414;0.018;2023-04-01T04:40:44;9.20;99.90
42187;DHT22;27858;51.414;0.018;2023-04-01T04:43:13;9.80;99.90
42187;DHT22;27858;51.414;0.018;2023-04-01T04:45:41;9.30;99.90
42187;DHT22;27858;51.414;0.018;2023-04-01T04:48:09;9.30;99.90
42187;DHT22;27858;51.414;0.018;2023-04-01T04:50:36;9.60;99.90
42187;DHT22;27858;51.414;0.018;2023-04-01T04:53:03;9.70;99.90
42187;DHT22;27858;51.414;0.018;2023-04-01T04:55:30;9.10;99.90
42187;DHT22;27858;51.414;0.018;2023-04-01T04:57:57;9.80;99.90
42187;DHT22;27858;51.414;0.018;2023-04-01T05:00:24;9.80;99.90
42187;DHT22;27858;51.414;0.018;2023-04-01T05:02:50;9.00;99.90
42187;DHT22;27858;51.414;0.018;2023-04-01T05:05:17;9.10;99.90
42187;DHT22;27858;51.414;0.018;2023-04-01T05:07:44;9.40;99.90
42187;DHT22;27858;51.414;0.018;2023-04-01T05:10:11;9.00;99.90
42187;DHT22;27858;51.414;0.018;2023-04-01T05:12:37;9.10;99.90
42187;DHT22;27858;51.414;0.018;2023-04-01T05:15:06;9.20;99.90
42187;DHT22;27858;51.414;0.018;2023-04-01T05:17:33;9.60;99.90
42187;DHT22;27858;51.414;0.018;2023-04-01T05:19:59;9.10;99.90
42187;DHT22;27858;51.414;0.018;2023-04-01T05:22:26;9.10;99.90
42187;DHT22;27858;51.414;0.018;2023-04-01T05:24:53;9.50;99.90
42187;DHT22;27858;51.414;0.018;2023-04-01T05:27:20;9.30;99.90
42187;DHT22;27858;51.414;0.018;2023-04-01T05:29:47;9.70;99.90
42187;DHT22;27858;51.414;0.018;2023-04-01T05:32:14;9.10;99.90
42187;DHT22;27858;51.414;0.018;2023-04-01T05:34:41;9.80;99.90
42187;DHT22;27858;51.414;0.018;2023-04-01T05:37:08;9.80;99.90
42187;DHT22;27858;51.414;0.018;2023-04-01T05:39:38;9.20;99.90
42187;DHT22;27858;51.414;0.018;2023-04-01T05:42:06;9.90;99.90
42187;DHT22;27858;51.414;0.018;2023-04-01T05:44:35;9.10;99.90
42187;DHT22;27858;51.414;0.018;2023-04-01T05:47:03;9.10;99.90
42187;DHT22;27858;51.414;0.018;2023-04-01T05:49:30;9.10;99.90
42187;DHT22;27858;51.414;0.018;2023-04-01T05:51:57;9.80;99.90
42187;DHT22;27858;51.414;0.018;2023-04-01T05:54:23;9.40;99.90
42187;DHT22;27858;51.414;0.018;2023-04-01T05:56:50;9.00;99.90
42187;DHT22;27858;51.414;0.018;2023-04-01T05:59:17;9.40;99.90
42187;DHT22;27858;51.414;0.018;2023-04-01T06:01:43;9.80;99.90
42187;DHT22;27858;51.414;0.018;2023-04-01T06:04:15;9.80;99.90
42187;DHT22;27858;51.414;0.018;2023-04-01T06:06:43;9.80;99.90
42187;DHT22;27858;51.414;0.018;2023-04-01T06:09:16;9.70;99.90
42187;DHT22;27858;51.414;0.018;2023-04-01T06:18:09;9.30;99.90
42187;DHT22;27858;51.414;0.018;2023-04-01T06:42:29;9.10;99.90
42187;DHT22;27858;51.414;0.018;2023-04-01T06:45:27;9.20;99.90
42187;DHT22;27858;51.414;0.018;2023-04-01T06:48:45;9.60;99.90
42187;DHT22;27858;51.414;0.018;2023-04-01T06:54:09;9.70;99.90
42187;DHT22;27858;51.414;0.018;2023-04-01T06:56:40;9.60;99.90
42187;DHT22;27858;51.414;0.018;2023-04-01T06:59:20;9.60;99.90
42187;DHT22;27858;51.414;0.018;2023-04-01T07:04:40;9.10;99.90
42187;DHT22;27858;51.414;0.018;2023-04-01T07:10:13;9.20;99.90
42187;DHT22;27858;51.414;0.018;2023-04-01T07:18:27;9.50;99.90
42187;DHT22;27858;51.414;0.018;2023-04-01T07:20:55;9.40;99.90
42187;DHT22;27858;51.414;0.018;2023-04-01T07:23:26;9.30;99.90
42187;DHT22;27858;51.414;0.018;2023-04-01T07:26:12;9.40;99.90
42187;DHT22;27858;51.414;0.018;2023-04-01T07:28:41;9.80;99.90
42187;DHT22;27858;51.414;0.018;2023-04-01T07:31:22;9.90;99.90
42187;DHT22;27858;51.414;0.018;2023-04-01T07:36:43;9.60;99.90
42187;DHT22;27858;51.414;0.018;2023-04-01T07:42:23;9.50;99.90
42187;DHT22;27858;51.414;0.018;2023-04-01T07:44:56;10.00;99.90
42187;DHT22;27858;51.414;0.018;2023-04-01T07:50:28;9.40;99.90
42187;DHT22;27858;51.414;0.018;2023-04-01T07:53:22;9.30;99.90
42187;DHT22;27858;51.414;0.018;2023-04-01T07:56:08;9.30;99.90
42187;DHT22;27858;51.414;0.018;2023-04-01T08:01:57;9.80;99.90
42187;DHT22;27858;51.414;0.018;2023-04-01T08:21:01;9.40;99.90
42187;DHT22;27858;51.414;0.018;2023-04-01T08:23:41;9.80;99.90
42187;DHT22;27858;51.414;0.018;2023-04-01T08:26:39;9.50;99.90
42187;DHT22;27858;51.414;0.018;2023-04-01T08:31:46;9.40;99.90
42187;DHT22;27858;51.414;0.018;2023-04-01T08:34:58;9.40;99.90
42187;DHT22;27858;51.414;0.018;2023-04-01T08:37:19;9.60;99.90
42187;DHT22;27858;51.414;0.018;2023-04-01T08:39:57;9.40;99.90
42187;DHT22;27858;51.414;0.018;2023-04-01T08:45:26;9.70;99.90
42187;DHT22;27858;51.414;0.018;2023-04-01T08:53:35;9.90;99.90
42187;DHT22;27858;51.414;0.018;2023-04-01T09:21:23;10.00;99.90
42187;DHT22;27858;51.414;0.018;2023-04-01T09:46:09;10.50;99.90
42187;DHT22;27858;51.414;0.018;2023-04-01T09:48:44;10.30;99.90
42187;DHT22;27858;51.414;0.018;2023-04-01T10:10:10;10.50;99.90
42187;DHT22;27858;51.414;0.018;2023-04-01T10:15:27;10.50;99.90
42187;DHT22;27858;51.414;0.018;2023-04-01T10:26:12;10.60;99.90
42187;DHT22;27858;51.414;0.018;2023-04-01T10:34:10;10.60;99.90
42187;DHT22;27858;51.414;0.018;2023-04-01T10:42:13;10.50;99.90
42187;DHT22;27858;51.414;0.018;2023-04-01T11:00:24;10.70;99.90
42187;DHT22;27858;51.414;0.018;2023-04-01T11:25:26;10.90;99.90
42187;DHT22;27858;51.414;0.018;2023-04-01T11:28:14;10.70;99.90
42187;DHT22;27858;51.414;0.018;2023-04-01T11:33:57;10.70;99.90
42187;DHT22;27858;51.414;0.018;2023-04-01T11:37:35;10.70;99.90
42187;DHT22;27858;51.414;0.018;2023-04-01T11:47:58;10.70;99.90
42187;DHT22;27858;51.414;0.018;2023-04-01T12:01:54;10.80;99.90
42187;DHT22;27858;51.414;0.018;2023-04-01T12:04:49;11.10;99.90
42187;DHT22;27858;51.414;0.018;2023-04-01T12:13:42;11.30;99.90
42187;DHT22;27858;51.414;0.018;2023-04-01T12:16:18;11.30;99.90
42187;DHT22;27858;51.414;0.018;2023-04-01T12:27:05;11.50;99.90
42187;DHT22;27858;51.414;0.018;2023-04-01T12:32:24;11.60;99.90
42187;DHT22;27858;51.414;0.018;2023-04-01T12:37:39;11.60;99.90
42187;DHT22;27858;51.414;0.018;2023-04-01T12:51:21;11.60;99.90
42187;DHT22;27858;51.414;0.018;2023-04-01T12:54:23;11.60;99.90
42187;DHT22;27858;51.414;0.018;2023-04-01T13:09:11;11.80;99.90
42187;DHT22;27858;51.414;0.018;2023-04-01T13:15:09;12.00;99.90
42187;DHT22;27858;51.414;0.018;2023-04-01T13:29:05;12.10;99.90
42187;DHT22;27858;51.414;0.018;2023-04-01T13:34:33;12.10;99.90
42187;DHT22;27858;51.414;0.018;2023-04-01T13:42:21;12.30;99.90
42187;DHT22;27858;51.414;0.018;2023-04-01T13:53:26;12.60;99.90
42187;DHT22;27858;51.414;0.018;2023-04-01T13:56:02;12.60;99.90
42187;DHT22;27858;51.414;0.018;2023-04-01T14:06:36;13.00;99.90
42187;DHT22;27858;51.414;0.018;2023-04-01T14:11:59;13.20;99.90
42187;DHT22;27858;51.414;0.018;2023-04-01T14:14:47;13.00;99.90
42187;DHT22;27858;51.414;0.018;2023-04-01T14:39:53;12.90;99.90
42187;DHT22;27858;51.414;0.018;2023-04-01T14:50:54;12.70;99.90
42187;DHT22;27858;51.414;0.018;2023-04-01T14:55:57;12.60;99.90
42187;DHT22;27858;51.414;0.018;2023-04-01T14:58:57;12.50;99.90
42187;DHT22;27858;51.414;0.018;2023-04-01T15:01:42;12.40;99.90
42187;DHT22;27858;51.414;0.018;2023-04-01T15:07:20;12.40;99.90
42187;DHT22;27858;51.414;0.018;2023-04-01T15:12:34;12.10;99.90
42187;DHT22;27858;51.414;0.018;2023-04-01T15:26:28;12.00;99.90
42187;DHT22;27858;51.414;0.018;2023-04-01T15:32:26;11.80;99.90
42187;DHT22;27858;51.414;0.018;2023-04-01T15:37:44;11.70;99.90
42187;DHT22;27858;51.414;0.018;2023-04-01T15:46:26;11.60;99.90
42187;DHT22;27858;51.414;0.018;2023-04-01T15:49:34;11.50;99.90
42187;DHT22;27858;51.414;0.018;2023-04-01T15:52:24;11.50;99.90
42187;DHT22;27858;51.414;0.018;2023-04-01T15:55:20;11.40;99.90
42187;DHT22;27858;51.414;0.018;2023-04-01T16:03:44;11.40;99.90
42187;DHT22;27858;51.414;0.018;2023-04-01T16:09:10;11.20;99.90
42187;DHT22;27858;51.414;0.018;2023-04-01T16:11:50;11.20;99.90
42187;DHT22;27858;51.414;0.018;2023-04-01T16:19:37;11.20;99.90
42187;DHT22;27858;51.414;0.018;2023-04-01T16:22:35;11.20;99.90
42187;DHT22;27858;51.414;0.018;2023-04-01T16:33:27;10.90;99.90
42187;DHT22;27858;51.414;0.018;2023-04-01T16:41:33;10.80;99.90
42187;DHT22;27858;51.414;0.018;2023-04-01T16:44:18;10.80;99.90
42187;DHT22;27858;51.414;0.018;2023-04-01T16:46:53;10.80;99.90
42187;DHT22;27858;51.414;0.018;2023-04-01T16:49:24;10.70;99.90
42187;DHT22;27858;51.414;0.018;2023-04-01T16:52:13;10.70;99.90
42187;DHT22;27858;51.414;0.018;2023-04-01T16:54:58;10.70;99.90
42187;DHT22;27858;51.414;0.018;2023-04-01T16:57:37;10.70;99.90
42187;DHT22;27858;51.414;0.018;2023-04-01T17:02:49;10.60;99.90
42187;DHT22;27858;51.414;0.018;2023-04-01T17:05:20;10.50;99.90
42187;DHT22;27858;51.414;0.018;2023-04-01T17:13:41;10.40;99.90
42187;DHT22;27858;51.414;0.018;2023-04-01T17:21:49;10.40;99.90
42187;DHT22;27858;51.414;0.018;2023-04-01T17:27:29;10.40;99.90
42187;DHT22;27858;51.414;0.018;2023-04-01T17:30:23;10.40;99.90
42187;DHT22;27858;51.414;0.018;2023-04-01T17:41:06;10.30;99.90
42187;DHT22;27858;51.414;0.018;2023-04-01T17:52:27;10.30;99.90
42187;DHT22;27858;51.414;0.018;2023-04-01T18:02:57;10.40;99.90
42187;DHT22;27858;51.414;0.018;2023-04-01T18:06:01;10.40;99.90
42187;DHT22;27858;51.414;0.018;2023-04-01T18:08:46;10.50;99.90
42187;DHT22;27858;51.414;0.018;2023-04-01T18:12:40;10.40;99.90
42187;DHT22;27858;51.414;0.018;2023-04-01T18:26:11;10.30;99.90
42187;DHT22;27858;51.414;0.018;2023-04-01T18:28:41;10.30;99.90
42187;DHT22;27858;51.414;0.018;2023-04-01T18:31:19;10.40;99.90
42187;DHT22;27858;51.414;0.018;2023-04-01T18:36:39;10.40;99.90
42187;DHT22;27858;51.414;0.018;2023-04-01T18:39:13;10.30;99.90
42187;DHT22;27858;51.414;0.018;2023-04-01T18:42:00;10.40;99.90
42187;DHT22;27858;51.414;0.018;2023-04-01T18:44:49;10.40;99.90
42187;DHT22;27858;51.414;0.018;2023-04-01T18:47:30;10.40;99.90
42187;DHT22;27858;51.414;0.018;2023-04-01T18:53:27;10.40;99.90
42187;DHT22;27858;51.414;0.018;2023-04-01T18:56:06;10.50;99.90
42187;DHT22;27858;51.414;0.018;2023-04-01T19:03:57;10.30;99.90
42187;DHT22;27858;51.414;0.018;2023-04-01T19:06:54;10.30;99.90
42187;DHT22;27858;51.414;0.018;2023-04-01T19:09:23;10.30;99.90
42187;DHT22;27858;51.414;0.018;2023-04-01T19:12:18;10.20;99.90
42187;DHT22;27858;51.414;0.018;2023-04-01T19:17:36;10.20;99.90
42187;DHT22;27858;51.414;0.018;2023-04-01T19:25:55;10.20;99.90
42187;DHT22;27858;51.414;0.018;2023-04-01T19:31:02;10.00;99.90
42187;DHT22;27858;51.414;0.018;2023-04-01T19:34:40;10.00;99.90
42187;DHT22;27858;51.414;0.018;2023-04-01T19:36:54;10.00;99.90
42187;DHT22;27858;51.414;0.018;2023-04-01T19:42:42;9.90;99.90
42187;DHT22;27858;51.414;0.018;2023-04-01T19:48:42;9.70;99.90
42187;DHT22;27858;51.414;0.018;2023-04-01T19:51:19;9.70;99.90
42187;DHT22;27858;51.414;0.018;2023-04-01T19:57:03;9.60;99.90
42187;DHT22;27858;51.414;0.018;2023-04-01T20:02:31;9.40;99.90
42187;DHT22;27858;51.414;0.018;2023-04-01T20:05:21;9.50;99.90
42187;DHT22;27858;51.414;0.018;2023-04-01T20:07:55;9.40;99.90
42187;DHT22;27858;51.414;0.018;2023-04-01T20:13:41;9.40;99.90
42187;DHT22;27858;51.414;0.018;2023-04-01T20:16:13;9.30;99.90
42187;DHT22;27858;51.414;0.018;2023-04-01T20:18:58;9.30;99.90
42187;DHT22;27858;51.414;0.018;2023-04-01T20:21:36;9.20;99.90
42187;DHT22;27858;51.414;0.018;2023-04-01T20:26:44;9.30;99.90
42187;DHT22;27858;51.414;0.018;2023-04-01T20:31:43;9.30;99.90
42187;DHT22;27858;51.414;0.018;2023-04-01T20:42:29;9.30;99.90
42187;DHT22;27858;51.414;0.018;2023-04-01T20:50:28;9.20;99.90
42187;DHT22;27858;51.414;0.018;2023-04-01T20:58:31;9.20;99.90
42187;DHT22;27858;51.414;0.018;2023-04-01T21:01:29;9.20;99.90
42187;DHT22;27858;51.414;0.018;2023-04-01T21:15:32;9.30;99.90
42187;DHT22;27858;51.414;0.018;2023-04-01T21:29:00;9.20;99.90
42187;DHT22;27858;51.414;0.018;2023-04-01T21:34:28;9.10;99.90
42187;DHT22;27858;51.414;0.018;2023-04-01T22:16:59;8.90;99.90
42187;DHT22;27858;51.414;0.018;2023-04-01T22:20:07;9.00;99.90
42187;DHT22;27858;51.414;0.018;2023-04-01T22:28:21;9.00;99.90
42187;DHT22;27858;51.414;0.018;2023-04-01T22:30:55;9.00;99.90
42187;DHT22;27858;51.414;0.018;2023-04-01T22:33:38;9.00;99.90
42187;DHT22;27858;51.414;0.018;2023-04-01T22:50:09;9.00;99.90
42187;DHT22;27858;51.414;0.018;2023-04-01T22:52:41;8.90;99.90
42187;DHT22;27858;51.414;0.018;2023-04-01T22:55:32;8.90;99.90
42187;DHT22;27858;51.414;0.018;2023-04-01T22:58:14;8.90;99.90
42187;DHT22;27858;51.414;0.018;2023-04-01T23:00:47;8.90;99.90
42187;DHT22;27858;51.414;0.018;2023-04-01T23:05:53;8.80;99.90
42187;DHT22;27858;51.414;0.018;2023-04-01T23:11:33;8.90;99.90
42187;DHT22;27858;51.414;0.018;2023-04-01T23:25:04;8.90;99.90
42187;DHT22;27858;51.414;0.018;2023-04-01T23:28:00;8.80;99.90
42187;DHT22;27858;51.414;0.018;2023-04-01T23:33:21;8.70;99.90
42187;DHT22;27858;51.414;0.018;2023-04-01T23:36:11;8.80;99.90
42187;DHT22;27858;51.414;0.018;2023-04-01T23:38:40;8.70;99.90
42187;DHT22;27858;51.414;0.018;2023-04-01T23:41:27;8.70;99.90
42187;DHT22;27858;51.414;0.018;2023-04-01T23:43:59;8.80;99.90
42187;DHT22;27858;51.414;0.018;2023-04-01T23:46:29;8.80;99.90
42187;DHT22;27858;51.414;0.018;2023-04-01T23:48:56;8.70;99.90
42187;DHT22;27858;51.414;0.018;2023-04-01T23:51:29;8.70;99.90
42187;DHT22;27858;51.414;0.018;2023-04-01T23:54:01;8.70;99.90
42187;DHT22;27858;51.414;0.018;2023-04-01T23:56:38;8.70;99.90
42187;DHT22;27858;51.414;0.018;2023-04-01T23:59:16;8.70;99.90
